sensor_id;sensor_type;location;lat;lon;timestamp;P1;durP1;ratioP1;P2;durP2;ratioP2
7831;SDS011;3961;42.058;25.586;2022-08-27T00:01:42;14.23;;;4.13;;
7831;SDS011;3961;42.058;25.586;2022-08-27T00:04:08;15.23;;;4.77;;
7831;SDS011;3961;42.058;25.586;2022-08-27T00:06:34;11.87;;;4.67;;
7831;SDS011;3961;42.058;25.586;2022-08-27T00:09:00;16.57;;;4.63;;
7831;SDS011;3961;42.058;25.586;2022-08-27T00:11:27;8.87;;;4.30;;
7831;SDS011;3961;42.058;25.586;2022-08-27T00:13:53;14.17;;;4.70;;
7831;SDS011;3961;42.058;25.586;2022-08-27T00:16:21;12.77;;;4.73;;
7831;SDS011;3961;42.058;25.586;2022-08-27T00:18:48;15.50;;;4.23;;
7831;SDS011;3961;42.058;25.586;2022-08-27T00:21:15;13.77;;;4.97;;
7831;SDS011;3961;42.058;25.586;2022-08-27T00:23:41;19.90;;;4.57;;
7831;SDS011;3961;42.058;25.586;2022-08-27T00:26:07;16.80;;;4.93;;
7831;SDS011;3961;42.058;25.586;2022-08-27T00:28:33;12.37;;;4.90;;
7831;SDS011;3961;42.058;25.586;2022-08-27T00:30:58;20.03;;;4.70;;
7831;SDS011;3961;42.058;25.586;2022-08-27T00:33:25;18.07;;;4.97;;
7831;SDS011;3961;42.058;25.586;2022-08-27T00:35:51;15.63;;;4.50;;
7831;SDS011;3961;42.058;25.586;2022-08-27T00:38:18;18.20;;;5.07;;
7831;SDS011;3961;42.058;25.586;2022-08-27T00:40:45;16.60;;;4.87;;
7831;SDS011;3961;42.058;25.586;2022-08-27T00:43:11;14.33;;;4.83;;
7831;SDS011;3961;42.058;25.586;2022-08-27T00:45:38;22.43;;;4.97;;
7831;SDS011;3961;42.058;25.586;2022-08-27T00:48:06;16.83;;;4.83;;
7831;SDS011;3961;42.058;25.586;2022-08-27T00:50:36;19.17;;;5.00;;
7831;SDS011;3961;42.058;25.586;2022-08-27T00:53:06;16.53;;;5.10;;
7831;SDS011;3961;42.058;25.586;2022-08-27T00:55:36;14.93;;;4.87;;
7831;SDS011;3961;42.058;25.586;2022-08-27T00:58:10;13.17;;;5.63;;
7831;SDS011;3961;42.058;25.586;2022-08-27T01:00:42;17.00;;;5.07;;
7831;SDS011;3961;42.058;25.586;2022-08-27T01:03:10;12.47;;;4.30;;
7831;SDS011;3961;42.058;25.586;2022-08-27T01:05:36;19.13;;;5.00;;
7831;SDS011;3961;42.058;25.586;2022-08-27T01:08:07;17.07;;;5.37;;
7831;SDS011;3961;42.058;25.586;2022-08-27T01:10:36;19.80;;;6.17;;
7831;SDS011;3961;42.058;25.586;2022-08-27T01:13:05;16.27;;;4.77;;
7831;SDS011;3961;42.058;25.586;2022-08-27T01:15:33;24.97;;;5.00;;
7831;SDS011;3961;42.058;25.586;2022-08-27T01:17:59;9.93;;;4.83;;
7831;SDS011;3961;42.058;25.586;2022-08-27T01:20:34;13.43;;;5.33;;
7831;SDS011;3961;42.058;25.586;2022-08-27T01:25:56;9.40;;;5.57;;
7831;SDS011;3961;42.058;25.586;2022-08-27T01:28:23;14.30;;;4.87;;
7831;SDS011;3961;42.058;25.586;2022-08-27T01:30:49;16.43;;;4.83;;
7831;SDS011;3961;42.058;25.586;2022-08-27T01:33:17;14.23;;;4.40;;
7831;SDS011;3961;42.058;25.586;2022-08-27T01:35:45;13.80;;;5.03;;
7831;SDS011;3961;42.058;25.586;2022-08-27T01:38:13;12.70;;;4.83;;
7831;SDS011;3961;42.058;25.586;2022-08-27T01:40:40;12.83;;;4.60;;
7831;SDS011;3961;42.058;25.586;2022-08-27T01:43:06;19.27;;;5.53;;
7831;SDS011;3961;42.058;25.586;2022-08-27T01:45:34;21.13;;;5.50;;
7831;SDS011;3961;42.058;25.586;2022-08-27T01:48:02;12.00;;;4.60;;
7831;SDS011;3961;42.058;25.586;2022-08-27T01:50:30;16.23;;;5.17;;
7831;SDS011;3961;42.058;25.586;2022-08-27T01:53:11;12.90;;;4.60;;
7831;SDS011;3961;42.058;25.586;2022-08-27T01:55:41;13.90;;;5.40;;
7831;SDS011;3961;42.058;25.586;2022-08-27T01:58:08;16.33;;;4.83;;
7831;SDS011;3961;42.058;25.586;2022-08-27T02:00:36;20.10;;;5.50;;
7831;SDS011;3961;42.058;25.586;2022-08-27T02:03:04;14.67;;;5.30;;
7831;SDS011;3961;42.058;25.586;2022-08-27T02:05:31;17.97;;;5.00;;
7831;SDS011;3961;42.058;25.586;2022-08-27T02:07:57;16.27;;;5.90;;
7831;SDS011;3961;42.058;25.586;2022-08-27T02:10:25;19.60;;;5.57;;
7831;SDS011;3961;42.058;25.586;2022-08-27T02:12:59;13.47;;;4.93;;
7831;SDS011;3961;42.058;25.586;2022-08-27T02:15:25;15.23;;;4.47;;
7831;SDS011;3961;42.058;25.586;2022-08-27T02:17:52;11.90;;;4.50;;
7831;SDS011;3961;42.058;25.586;2022-08-27T02:20:18;14.23;;;5.43;;
7831;SDS011;3961;42.058;25.586;2022-08-27T02:22:44;18.37;;;5.07;;
7831;SDS011;3961;42.058;25.586;2022-08-27T02:25:11;20.40;;;5.30;;
7831;SDS011;3961;42.058;25.586;2022-08-27T02:27:39;20.93;;;5.00;;
7831;SDS011;3961;42.058;25.586;2022-08-27T02:30:07;41.63;;;7.17;;
7831;SDS011;3961;42.058;25.586;2022-08-27T02:32:35;21.20;;;6.07;;
7831;SDS011;3961;42.058;25.586;2022-08-27T02:35:00;15.63;;;5.13;;
7831;SDS011;3961;42.058;25.586;2022-08-27T02:37:28;14.27;;;4.97;;
7831;SDS011;3961;42.058;25.586;2022-08-27T02:39:54;19.43;;;6.00;;
7831;SDS011;3961;42.058;25.586;2022-08-27T02:42:20;28.93;;;6.33;;
7831;SDS011;3961;42.058;25.586;2022-08-27T02:44:46;21.30;;;6.07;;
7831;SDS011;3961;42.058;25.586;2022-08-27T02:47:11;18.07;;;6.30;;
7831;SDS011;3961;42.058;25.586;2022-08-27T02:49:38;23.17;;;5.70;;
7831;SDS011;3961;42.058;25.586;2022-08-27T02:52:04;18.67;;;5.43;;
7831;SDS011;3961;42.058;25.586;2022-08-27T02:54:29;20.53;;;5.40;;
7831;SDS011;3961;42.058;25.586;2022-08-27T02:56:55;16.50;;;5.47;;
7831;SDS011;3961;42.058;25.586;2022-08-27T02:59:21;25.20;;;5.93;;
7831;SDS011;3961;42.058;25.586;2022-08-27T03:01:47;21.43;;;5.73;;
7831;SDS011;3961;42.058;25.586;2022-08-27T03:04:13;15.27;;;5.40;;
7831;SDS011;3961;42.058;25.586;2022-08-27T03:06:39;22.00;;;5.70;;
7831;SDS011;3961;42.058;25.586;2022-08-27T03:09:05;20.87;;;5.70;;
7831;SDS011;3961;42.058;25.586;2022-08-27T03:11:30;23.77;;;5.47;;
7831;SDS011;3961;42.058;25.586;2022-08-27T03:13:57;22.03;;;6.30;;
7831;SDS011;3961;42.058;25.586;2022-08-27T03:16:24;17.37;;;5.37;;
7831;SDS011;3961;42.058;25.586;2022-08-27T03:18:50;21.67;;;6.00;;
7831;SDS011;3961;42.058;25.586;2022-08-27T03:21:17;20.60;;;6.07;;
7831;SDS011;3961;42.058;25.586;2022-08-27T03:23:48;19.80;;;5.73;;
7831;SDS011;3961;42.058;25.586;2022-08-27T03:26:15;17.70;;;5.93;;
7831;SDS011;3961;42.058;25.586;2022-08-27T03:28:41;18.23;;;6.37;;
7831;SDS011;3961;42.058;25.586;2022-08-27T03:31:08;23.03;;;6.37;;
7831;SDS011;3961;42.058;25.586;2022-08-27T03:33:40;22.73;;;7.40;;
7831;SDS011;3961;42.058;25.586;2022-08-27T03:36:06;21.07;;;5.87;;
7831;SDS011;3961;42.058;25.586;2022-08-27T03:38:33;18.23;;;5.30;;
7831;SDS011;3961;42.058;25.586;2022-08-27T03:41:01;14.67;;;5.70;;
7831;SDS011;3961;42.058;25.586;2022-08-27T03:43:27;19.30;;;6.37;;
7831;SDS011;3961;42.058;25.586;2022-08-27T03:45:53;17.73;;;6.03;;
7831;SDS011;3961;42.058;25.586;2022-08-27T03:48:19;24.27;;;5.77;;
7831;SDS011;3961;42.058;25.586;2022-08-27T03:50:45;19.90;;;5.67;;
7831;SDS011;3961;42.058;25.586;2022-08-27T03:53:12;19.90;;;5.73;;
7831;SDS011;3961;42.058;25.586;2022-08-27T03:55:39;22.10;;;6.93;;
7831;SDS011;3961;42.058;25.586;2022-08-27T03:58:09;16.27;;;6.50;;
7831;SDS011;3961;42.058;25.586;2022-08-27T04:00:36;14.93;;;5.47;;
7831;SDS011;3961;42.058;25.586;2022-08-27T04:03:03;19.20;;;5.67;;
7831;SDS011;3961;42.058;25.586;2022-08-27T04:05:31;28.10;;;10.27;;
7831;SDS011;3961;42.058;25.586;2022-08-27T04:07:57;19.60;;;7.03;;
7831;SDS011;3961;42.058;25.586;2022-08-27T04:10:23;29.47;;;10.27;;
7831;SDS011;3961;42.058;25.586;2022-08-27T04:12:49;48.00;;;13.20;;
7831;SDS011;3961;42.058;25.586;2022-08-27T04:15:14;43.07;;;13.97;;
7831;SDS011;3961;42.058;25.586;2022-08-27T04:17:40;34.47;;;11.00;;
7831;SDS011;3961;42.058;25.586;2022-08-27T04:20:06;31.37;;;8.23;;
7831;SDS011;3961;42.058;25.586;2022-08-27T04:22:33;22.17;;;8.73;;
7831;SDS011;3961;42.058;25.586;2022-08-27T04:24:59;19.50;;;7.70;;
7831;SDS011;3961;42.058;25.586;2022-08-27T04:27:25;19.23;;;5.90;;
7831;SDS011;3961;42.058;25.586;2022-08-27T04:29:55;18.83;;;5.83;;
7831;SDS011;3961;42.058;25.586;2022-08-27T04:32:22;18.70;;;8.00;;
7831;SDS011;3961;42.058;25.586;2022-08-27T04:34:56;33.17;;;11.07;;
7831;SDS011;3961;42.058;25.586;2022-08-27T04:37:23;25.87;;;9.30;;
7831;SDS011;3961;42.058;25.586;2022-08-27T04:39:50;28.77;;;8.83;;
7831;SDS011;3961;42.058;25.586;2022-08-27T04:42:17;25.63;;;8.93;;
7831;SDS011;3961;42.058;25.586;2022-08-27T04:44:44;16.37;;;6.10;;
7831;SDS011;3961;42.058;25.586;2022-08-27T04:47:10;22.93;;;6.93;;
7831;SDS011;3961;42.058;25.586;2022-08-27T04:49:37;17.30;;;6.27;;
7831;SDS011;3961;42.058;25.586;2022-08-27T04:52:03;12.77;;;5.50;;
7831;SDS011;3961;42.058;25.586;2022-08-27T04:54:29;15.37;;;5.70;;
7831;SDS011;3961;42.058;25.586;2022-08-27T04:56:55;15.10;;;6.17;;
7831;SDS011;3961;42.058;25.586;2022-08-27T04:59:21;17.87;;;6.47;;
7831;SDS011;3961;42.058;25.586;2022-08-27T05:01:47;17.93;;;5.73;;
7831;SDS011;3961;42.058;25.586;2022-08-27T05:04:14;16.23;;;6.77;;
7831;SDS011;3961;42.058;25.586;2022-08-27T05:06:40;27.30;;;7.97;;
7831;SDS011;3961;42.058;25.586;2022-08-27T05:09:09;31.13;;;8.63;;
7831;SDS011;3961;42.058;25.586;2022-08-27T05:11:35;18.57;;;5.97;;
7831;SDS011;3961;42.058;25.586;2022-08-27T05:14:03;25.40;;;6.10;;
7831;SDS011;3961;42.058;25.586;2022-08-27T05:16:30;22.17;;;6.40;;
7831;SDS011;3961;42.058;25.586;2022-08-27T05:18:56;19.93;;;6.20;;
7831;SDS011;3961;42.058;25.586;2022-08-27T05:21:24;26.57;;;6.40;;
7831;SDS011;3961;42.058;25.586;2022-08-27T05:23:53;16.87;;;6.07;;
7831;SDS011;3961;42.058;25.586;2022-08-27T05:26:20;14.63;;;5.50;;
7831;SDS011;3961;42.058;25.586;2022-08-27T05:28:47;16.80;;;4.60;;
7831;SDS011;3961;42.058;25.586;2022-08-27T05:31:13;13.90;;;5.90;;
7831;SDS011;3961;42.058;25.586;2022-08-27T05:33:40;18.67;;;5.07;;
7831;SDS011;3961;42.058;25.586;2022-08-27T05:36:06;13.07;;;5.20;;
7831;SDS011;3961;42.058;25.586;2022-08-27T05:38:38;15.23;;;5.37;;
7831;SDS011;3961;42.058;25.586;2022-08-27T05:41:05;23.47;;;6.03;;
7831;SDS011;3961;42.058;25.586;2022-08-27T05:43:34;14.03;;;5.67;;
7831;SDS011;3961;42.058;25.586;2022-08-27T05:46:03;21.03;;;5.37;;
7831;SDS011;3961;42.058;25.586;2022-08-27T05:48:34;15.67;;;6.70;;
7831;SDS011;3961;42.058;25.586;2022-08-27T05:51:11;17.87;;;5.90;;
7831;SDS011;3961;42.058;25.586;2022-08-27T05:53:40;15.47;;;6.50;;
7831;SDS011;3961;42.058;25.586;2022-08-27T05:56:13;17.37;;;6.37;;
7831;SDS011;3961;42.058;25.586;2022-08-27T05:58:45;18.10;;;5.40;;
7831;SDS011;3961;42.058;25.586;2022-08-27T06:01:30;13.57;;;5.63;;
7831;SDS011;3961;42.058;25.586;2022-08-27T06:03:58;18.50;;;6.13;;
7831;SDS011;3961;42.058;25.586;2022-08-27T06:06:24;16.30;;;6.00;;
7831;SDS011;3961;42.058;25.586;2022-08-27T06:08:51;20.30;;;6.20;;
7831;SDS011;3961;42.058;25.586;2022-08-27T06:11:18;16.90;;;5.63;;
7831;SDS011;3961;42.058;25.586;2022-08-27T06:13:44;14.90;;;5.87;;
7831;SDS011;3961;42.058;25.586;2022-08-27T06:16:12;17.37;;;5.53;;
7831;SDS011;3961;42.058;25.586;2022-08-27T06:18:41;23.73;;;7.20;;
7831;SDS011;3961;42.058;25.586;2022-08-27T06:21:09;16.17;;;5.83;;
7831;SDS011;3961;42.058;25.586;2022-08-27T06:23:36;21.10;;;6.03;;
7831;SDS011;3961;42.058;25.586;2022-08-27T06:26:04;18.87;;;6.00;;
7831;SDS011;3961;42.058;25.586;2022-08-27T06:28:36;16.13;;;5.83;;
7831;SDS011;3961;42.058;25.586;2022-08-27T06:31:04;16.47;;;5.87;;
7831;SDS011;3961;42.058;25.586;2022-08-27T06:33:33;21.00;;;5.50;;
7831;SDS011;3961;42.058;25.586;2022-08-27T06:35:59;23.90;;;6.13;;
7831;SDS011;3961;42.058;25.586;2022-08-27T06:38:25;19.43;;;6.37;;
7831;SDS011;3961;42.058;25.586;2022-08-27T06:40:51;11.87;;;5.03;;
7831;SDS011;3961;42.058;25.586;2022-08-27T06:43:18;19.57;;;6.10;;
7831;SDS011;3961;42.058;25.586;2022-08-27T06:45:43;24.60;;;5.40;;
7831;SDS011;3961;42.058;25.586;2022-08-27T06:48:09;14.60;;;5.67;;
7831;SDS011;3961;42.058;25.586;2022-08-27T06:50:38;22.03;;;5.27;;
7831;SDS011;3961;42.058;25.586;2022-08-27T06:53:05;14.83;;;5.80;;
7831;SDS011;3961;42.058;25.586;2022-08-27T06:55:31;10.20;;;4.80;;
7831;SDS011;3961;42.058;25.586;2022-08-27T06:58:04;15.47;;;5.30;;
7831;SDS011;3961;42.058;25.586;2022-08-27T07:00:29;17.47;;;5.93;;
7831;SDS011;3961;42.058;25.586;2022-08-27T07:02:55;22.10;;;5.43;;
7831;SDS011;3961;42.058;25.586;2022-08-27T07:05:20;22.60;;;5.20;;
7831;SDS011;3961;42.058;25.586;2022-08-27T07:07:46;19.83;;;5.27;;
7831;SDS011;3961;42.058;25.586;2022-08-27T07:10:11;19.43;;;5.33;;
7831;SDS011;3961;42.058;25.586;2022-08-27T07:12:37;15.67;;;4.87;;
7831;SDS011;3961;42.058;25.586;2022-08-27T07:15:02;18.40;;;5.30;;
7831;SDS011;3961;42.058;25.586;2022-08-27T07:17:28;20.37;;;5.47;;
7831;SDS011;3961;42.058;25.586;2022-08-27T07:19:54;17.77;;;5.00;;
7831;SDS011;3961;42.058;25.586;2022-08-27T07:22:20;17.80;;;4.73;;
7831;SDS011;3961;42.058;25.586;2022-08-27T07:24:46;15.50;;;5.03;;
7831;SDS011;3961;42.058;25.586;2022-08-27T07:27:11;11.73;;;4.83;;
7831;SDS011;3961;42.058;25.586;2022-08-27T07:29:37;23.27;;;5.67;;
7831;SDS011;3961;42.058;25.586;2022-08-27T07:32:02;11.97;;;4.87;;
7831;SDS011;3961;42.058;25.586;2022-08-27T07:34:28;11.07;;;4.80;;
7831;SDS011;3961;42.058;25.586;2022-08-27T07:36:54;18.07;;;5.03;;
7831;SDS011;3961;42.058;25.586;2022-08-27T07:39:19;16.70;;;4.60;;
7831;SDS011;3961;42.058;25.586;2022-08-27T07:41:45;13.43;;;4.90;;
7831;SDS011;3961;42.058;25.586;2022-08-27T07:44:29;20.57;;;4.87;;
7831;SDS011;3961;42.058;25.586;2022-08-27T07:46:54;18.40;;;5.33;;
7831;SDS011;3961;42.058;25.586;2022-08-27T07:49:21;13.63;;;5.37;;
7831;SDS011;3961;42.058;25.586;2022-08-27T07:51:47;14.63;;;4.83;;
7831;SDS011;3961;42.058;25.586;2022-08-27T07:54:14;21.63;;;4.43;;
7831;SDS011;3961;42.058;25.586;2022-08-27T07:56:40;16.17;;;5.67;;
7831;SDS011;3961;42.058;25.586;2022-08-27T07:59:07;14.87;;;4.33;;
7831;SDS011;3961;42.058;25.586;2022-08-27T08:01:33;12.93;;;5.00;;
7831;SDS011;3961;42.058;25.586;2022-08-27T08:03:59;14.47;;;4.93;;
7831;SDS011;3961;42.058;25.586;2022-08-27T08:06:25;16.27;;;4.73;;
7831;SDS011;3961;42.058;25.586;2022-08-27T08:08:51;8.90;;;4.83;;
7831;SDS011;3961;42.058;25.586;2022-08-27T08:11:17;23.27;;;4.83;;
7831;SDS011;3961;42.058;25.586;2022-08-27T08:13:43;13.33;;;4.87;;
7831;SDS011;3961;42.058;25.586;2022-08-27T08:16:09;22.70;;;5.77;;
7831;SDS011;3961;42.058;25.586;2022-08-27T08:18:36;16.80;;;5.20;;
7831;SDS011;3961;42.058;25.586;2022-08-27T08:21:04;23.30;;;6.00;;
7831;SDS011;3961;42.058;25.586;2022-08-27T08:23:32;22.10;;;6.07;;
7831;SDS011;3961;42.058;25.586;2022-08-27T08:25:58;24.00;;;5.47;;
7831;SDS011;3961;42.058;25.586;2022-08-27T08:28:25;14.80;;;5.17;;
7831;SDS011;3961;42.058;25.586;2022-08-27T08:30:52;12.37;;;4.50;;
7831;SDS011;3961;42.058;25.586;2022-08-27T08:33:18;13.87;;;5.03;;
7831;SDS011;3961;42.058;25.586;2022-08-27T08:35:44;12.63;;;4.80;;
7831;SDS011;3961;42.058;25.586;2022-08-27T08:38:10;11.47;;;4.53;;
7831;SDS011;3961;42.058;25.586;2022-08-27T08:40:37;14.47;;;4.80;;
7831;SDS011;3961;42.058;25.586;2022-08-27T08:43:06;23.98;;;5.10;;
7831;SDS011;3961;42.058;25.586;2022-08-27T08:45:37;14.25;;;4.80;;
7831;SDS011;3961;42.058;25.586;2022-08-27T08:48:19;14.93;;;4.28;;
7831;SDS011;3961;42.058;25.586;2022-08-27T08:53:25;20.65;;;5.22;;
7831;SDS011;3961;42.058;25.586;2022-08-27T08:55:54;14.20;;;4.45;;
7831;SDS011;3961;42.058;25.586;2022-08-27T09:01:03;14.10;;;4.43;;
7831;SDS011;3961;42.058;25.586;2022-08-27T09:03:32;12.00;;;4.22;;
7831;SDS011;3961;42.058;25.586;2022-08-27T09:06:08;11.50;;;4.72;;
7831;SDS011;3961;42.058;25.586;2022-08-27T09:08:40;15.98;;;4.75;;
7831;SDS011;3961;42.058;25.586;2022-08-27T09:13:57;16.27;;;4.65;;
7831;SDS011;3961;42.058;25.586;2022-08-27T09:16:26;9.77;;;4.50;;
7831;SDS011;3961;42.058;25.586;2022-08-27T09:18:52;9.55;;;4.10;;
7831;SDS011;3961;42.058;25.586;2022-08-27T09:21:30;10.25;;;4.15;;
7831;SDS011;3961;42.058;25.586;2022-08-27T09:26:42;17.20;;;3.85;;
7831;SDS011;3961;42.058;25.586;2022-08-27T09:29:10;15.45;;;4.63;;
7831;SDS011;3961;42.058;25.586;2022-08-27T09:31:41;20.13;;;4.22;;
7831;SDS011;3961;42.058;25.586;2022-08-27T09:34:09;19.00;;;4.18;;
7831;SDS011;3961;42.058;25.586;2022-08-27T09:36:44;19.38;;;4.38;;
7831;SDS011;3961;42.058;25.586;2022-08-27T09:39:13;19.27;;;4.32;;
7831;SDS011;3961;42.058;25.586;2022-08-27T09:41:41;14.77;;;4.32;;
7831;SDS011;3961;42.058;25.586;2022-08-27T09:44:10;13.57;;;4.03;;
7831;SDS011;3961;42.058;25.586;2022-08-27T09:46:37;17.73;;;4.97;;
7831;SDS011;3961;42.058;25.586;2022-08-27T09:49:12;19.27;;;4.15;;
7831;SDS011;3961;42.058;25.586;2022-08-27T09:51:40;13.00;;;4.63;;
7831;SDS011;3961;42.058;25.586;2022-08-27T09:54:08;20.05;;;4.57;;
7831;SDS011;3961;42.058;25.586;2022-08-27T09:56:39;13.82;;;4.57;;
7831;SDS011;3961;42.058;25.586;2022-08-27T09:59:12;14.88;;;4.55;;
7831;SDS011;3961;42.058;25.586;2022-08-27T10:04:23;22.45;;;4.47;;
7831;SDS011;3961;42.058;25.586;2022-08-27T10:06:50;20.60;;;4.75;;
7831;SDS011;3961;42.058;25.586;2022-08-27T10:09:19;18.42;;;4.35;;
7831;SDS011;3961;42.058;25.586;2022-08-27T10:12:01;11.95;;;4.30;;
7831;SDS011;3961;42.058;25.586;2022-08-27T10:14:39;20.83;;;4.72;;
7831;SDS011;3961;42.058;25.586;2022-08-27T10:19:53;15.25;;;4.78;;
7831;SDS011;3961;42.058;25.586;2022-08-27T10:22:47;11.43;;;3.72;;
7831;SDS011;3961;42.058;25.586;2022-08-27T10:31:18;13.13;;;4.45;;
7831;SDS011;3961;42.058;25.586;2022-08-27T10:39:40;20.17;;;5.15;;
7831;SDS011;3961;42.058;25.586;2022-08-27T10:52:42;16.98;;;4.95;;
7831;SDS011;3961;42.058;25.586;2022-08-27T10:55:22;19.92;;;4.68;;
7831;SDS011;3961;42.058;25.586;2022-08-27T11:00:23;21.70;;;5.05;;
7831;SDS011;3961;42.058;25.586;2022-08-27T11:02:55;24.15;;;5.25;;
7831;SDS011;3961;42.058;25.586;2022-08-27T11:05:30;16.63;;;4.18;;
7831;SDS011;3961;42.058;25.586;2022-08-27T11:11:10;17.38;;;4.18;;
7831;SDS011;3961;42.058;25.586;2022-08-27T11:13:45;17.17;;;4.75;;
7831;SDS011;3961;42.058;25.586;2022-08-27T11:16:22;18.75;;;4.50;;
7831;SDS011;3961;42.058;25.586;2022-08-27T11:18:53;14.27;;;4.63;;
7831;SDS011;3961;42.058;25.586;2022-08-27T11:24:16;21.30;;;4.82;;
7831;SDS011;3961;42.058;25.586;2022-08-27T11:26:49;15.75;;;4.07;;
7831;SDS011;3961;42.058;25.586;2022-08-27T11:35:08;17.23;;;4.93;;
7831;SDS011;3961;42.058;25.586;2022-08-27T11:37:41;15.95;;;4.38;;
7831;SDS011;3961;42.058;25.586;2022-08-27T11:43:09;24.95;;;5.22;;
7831;SDS011;3961;42.058;25.586;2022-08-27T11:45:49;9.80;;;4.18;;
7831;SDS011;3961;42.058;25.586;2022-08-27T11:48:54;23.88;;;4.85;;
7831;SDS011;3961;42.058;25.586;2022-08-27T11:51:29;25.60;;;4.75;;
7831;SDS011;3961;42.058;25.586;2022-08-27T11:54:04;16.08;;;5.00;;
7831;SDS011;3961;42.058;25.586;2022-08-27T11:59:10;21.88;;;4.75;;
7831;SDS011;3961;42.058;25.586;2022-08-27T12:01:45;34.60;;;4.85;;
7831;SDS011;3961;42.058;25.586;2022-08-27T12:04:31;17.98;;;4.57;;
7831;SDS011;3961;42.058;25.586;2022-08-27T12:07:04;37.55;;;4.75;;
7831;SDS011;3961;42.058;25.586;2022-08-27T12:09:41;19.90;;;4.82;;
7831;SDS011;3961;42.058;25.586;2022-08-27T12:15:25;14.90;;;4.25;;
7831;SDS011;3961;42.058;25.586;2022-08-27T12:20:42;22.50;;;4.80;;
7831;SDS011;3961;42.058;25.586;2022-08-27T12:26:32;17.50;;;4.38;;
7831;SDS011;3961;42.058;25.586;2022-08-27T12:32:00;19.23;;;4.00;;
7831;SDS011;3961;42.058;25.586;2022-08-27T12:34:29;12.82;;;3.95;;
7831;SDS011;3961;42.058;25.586;2022-08-27T12:37:07;25.52;;;4.22;;
7831;SDS011;3961;42.058;25.586;2022-08-27T12:39:33;16.98;;;3.92;;
7831;SDS011;3961;42.058;25.586;2022-08-27T12:42:02;19.98;;;4.53;;
7831;SDS011;3961;42.058;25.586;2022-08-27T12:44:38;12.43;;;4.15;;
7831;SDS011;3961;42.058;25.586;2022-08-27T12:47:04;22.17;;;4.78;;
7831;SDS011;3961;42.058;25.586;2022-08-27T12:49:38;17.70;;;4.55;;
7831;SDS011;3961;42.058;25.586;2022-08-27T12:52:39;19.55;;;3.92;;
7831;SDS011;3961;42.058;25.586;2022-08-27T13:00:22;12.18;;;4.05;;
7831;SDS011;3961;42.058;25.586;2022-08-27T13:05:45;14.18;;;3.65;;
7831;SDS011;3961;42.058;25.586;2022-08-27T13:08:21;14.90;;;4.00;;
7831;SDS011;3961;42.058;25.586;2022-08-27T13:10:50;14.10;;;4.43;;
7831;SDS011;3961;42.058;25.586;2022-08-27T13:13:18;19.85;;;4.88;;
7831;SDS011;3961;42.058;25.586;2022-08-27T13:15:49;17.70;;;4.38;;
7831;SDS011;3961;42.058;25.586;2022-08-27T13:18:17;22.02;;;3.90;;
7831;SDS011;3961;42.058;25.586;2022-08-27T13:20:44;13.85;;;4.25;;
7831;SDS011;3961;42.058;25.586;2022-08-27T13:23:14;16.63;;;3.72;;
7831;SDS011;3961;42.058;25.586;2022-08-27T13:25:51;23.88;;;4.70;;
7831;SDS011;3961;42.058;25.586;2022-08-27T13:28:24;21.10;;;4.70;;
7831;SDS011;3961;42.058;25.586;2022-08-27T13:30:52;17.08;;;4.50;;
7831;SDS011;3961;42.058;25.586;2022-08-27T13:33:36;19.08;;;4.60;;
7831;SDS011;3961;42.058;25.586;2022-08-27T13:36:04;18.38;;;4.85;;
7831;SDS011;3961;42.058;25.586;2022-08-27T13:38:32;19.17;;;4.53;;
7831;SDS011;3961;42.058;25.586;2022-08-27T13:43:39;22.67;;;4.78;;
7831;SDS011;3961;42.058;25.586;2022-08-27T13:49:11;13.50;;;3.63;;
7831;SDS011;3961;42.058;25.586;2022-08-27T13:51:41;15.82;;;4.80;;
7831;SDS011;3961;42.058;25.586;2022-08-27T13:54:10;17.23;;;4.50;;
7831;SDS011;3961;42.058;25.586;2022-08-27T13:56:42;16.48;;;4.82;;
7831;SDS011;3961;42.058;25.586;2022-08-27T13:59:26;13.48;;;4.65;;
7831;SDS011;3961;42.058;25.586;2022-08-27T14:01:56;17.73;;;5.03;;
7831;SDS011;3961;42.058;25.586;2022-08-27T14:04:34;19.92;;;4.65;;
7831;SDS011;3961;42.058;25.586;2022-08-27T14:07:05;23.15;;;4.82;;
7831;SDS011;3961;42.058;25.586;2022-08-27T14:09:52;18.58;;;4.18;;
7831;SDS011;3961;42.058;25.586;2022-08-27T14:12:26;15.68;;;5.00;;
7831;SDS011;3961;42.058;25.586;2022-08-27T14:14:52;19.20;;;4.55;;
7831;SDS011;3961;42.058;25.586;2022-08-27T14:17:33;13.93;;;4.53;;
7831;SDS011;3961;42.058;25.586;2022-08-27T14:20:03;16.38;;;4.43;;
7831;SDS011;3961;42.058;25.586;2022-08-27T14:22:30;13.18;;;4.15;;
7831;SDS011;3961;42.058;25.586;2022-08-27T14:24:56;15.65;;;4.78;;
7831;SDS011;3961;42.058;25.586;2022-08-27T14:27:21;22.30;;;4.82;;
7831;SDS011;3961;42.058;25.586;2022-08-27T14:29:47;19.95;;;4.68;;
7831;SDS011;3961;42.058;25.586;2022-08-27T14:32:14;20.70;;;4.43;;
7831;SDS011;3961;42.058;25.586;2022-08-27T14:34:43;16.05;;;4.30;;
7831;SDS011;3961;42.058;25.586;2022-08-27T14:37:08;25.48;;;5.05;;
7831;SDS011;3961;42.058;25.586;2022-08-27T14:39:34;19.05;;;4.38;;
7831;SDS011;3961;42.058;25.586;2022-08-27T14:42:00;16.70;;;4.88;;
7831;SDS011;3961;42.058;25.586;2022-08-27T14:44:26;20.48;;;4.35;;
7831;SDS011;3961;42.058;25.586;2022-08-27T14:46:51;14.13;;;4.90;;
7831;SDS011;3961;42.058;25.586;2022-08-27T14:49:37;20.00;;;4.57;;
7831;SDS011;3961;42.058;25.586;2022-08-27T14:52:07;16.00;;;4.80;;
7831;SDS011;3961;42.058;25.586;2022-08-27T14:54:34;13.93;;;4.45;;
7831;SDS011;3961;42.058;25.586;2022-08-27T14:57:00;16.95;;;5.13;;
7831;SDS011;3961;42.058;25.586;2022-08-27T14:59:27;23.05;;;5.55;;
7831;SDS011;3961;42.058;25.586;2022-08-27T15:01:53;18.58;;;4.25;;
7831;SDS011;3961;42.058;25.586;2022-08-27T15:04:21;14.65;;;3.75;;
7831;SDS011;3961;42.058;25.586;2022-08-27T15:06:48;23.45;;;4.68;;
7831;SDS011;3961;42.058;25.586;2022-08-27T15:09:13;14.27;;;4.70;;
7831;SDS011;3961;42.058;25.586;2022-08-27T15:11:39;16.58;;;4.28;;
7831;SDS011;3961;42.058;25.586;2022-08-27T15:14:09;19.85;;;4.47;;
7831;SDS011;3961;42.058;25.586;2022-08-27T15:16:40;21.15;;;4.53;;
7831;SDS011;3961;42.058;25.586;2022-08-27T15:19:07;16.42;;;4.65;;
7831;SDS011;3961;42.058;25.586;2022-08-27T15:21:34;20.88;;;5.60;;
7831;SDS011;3961;42.058;25.586;2022-08-27T15:24:04;23.02;;;5.72;;
7831;SDS011;3961;42.058;25.586;2022-08-27T15:26:34;13.95;;;4.43;;
7831;SDS011;3961;42.058;25.586;2022-08-27T15:29:01;15.60;;;4.70;;
7831;SDS011;3961;42.058;25.586;2022-08-27T15:31:26;18.08;;;4.40;;
7831;SDS011;3961;42.058;25.586;2022-08-27T15:33:52;20.65;;;4.70;;
7831;SDS011;3961;42.058;25.586;2022-08-27T15:36:17;18.90;;;5.32;;
7831;SDS011;3961;42.058;25.586;2022-08-27T15:38:43;18.23;;;4.35;;
7831;SDS011;3961;42.058;25.586;2022-08-27T15:41:08;11.05;;;4.20;;
7831;SDS011;3961;42.058;25.586;2022-08-27T15:43:35;15.00;;;4.28;;
7831;SDS011;3961;42.058;25.586;2022-08-27T15:46:01;12.43;;;4.28;;
7831;SDS011;3961;42.058;25.586;2022-08-27T15:48:27;17.23;;;4.07;;
7831;SDS011;3961;42.058;25.586;2022-08-27T15:50:52;20.40;;;4.70;;
7831;SDS011;3961;42.058;25.586;2022-08-27T15:53:20;13.18;;;4.35;;
7831;SDS011;3961;42.058;25.586;2022-08-27T15:55:48;16.83;;;4.63;;
7831;SDS011;3961;42.058;25.586;2022-08-27T15:58:15;19.05;;;4.40;;
7831;SDS011;3961;42.058;25.586;2022-08-27T16:00:41;22.80;;;4.57;;
7831;SDS011;3961;42.058;25.586;2022-08-27T16:03:09;17.63;;;4.60;;
7831;SDS011;3961;42.058;25.586;2022-08-27T16:05:38;24.35;;;4.40;;
7831;SDS011;3961;42.058;25.586;2022-08-27T16:08:06;15.35;;;4.72;;
7831;SDS011;3961;42.058;25.586;2022-08-27T16:10:32;16.20;;;4.70;;
7831;SDS011;3961;42.058;25.586;2022-08-27T16:12:58;14.98;;;4.35;;
7831;SDS011;3961;42.058;25.586;2022-08-27T16:15:23;15.65;;;4.53;;
7831;SDS011;3961;42.058;25.586;2022-08-27T16:17:50;18.17;;;4.82;;
7831;SDS011;3961;42.058;25.586;2022-08-27T16:20:19;16.17;;;4.50;;
7831;SDS011;3961;42.058;25.586;2022-08-27T16:22:48;17.20;;;4.18;;
7831;SDS011;3961;42.058;25.586;2022-08-27T16:25:14;12.88;;;4.20;;